Main page
METAR-TAF:

METAR-TAF

Airports :

Lake Cumberland Regional Airport

Somerset, Kentucky, United States

latitude: 37-03-15N, longitude: 084-36-54W, elevation: 928 ft

Current weather observation

The report was made 13 minutes ago, at 10:15 UTC
Calm wind
Temperature 25°F
Humidity 74%
Pressure 30.26 in. Hg
Visibility: 10 miles
Clear sky

METAR: KSME 231015Z AUTO 00000KT 10SM CLR M04/M08 A3026 RMK AO2

Time: 05:28 (10:28 UTC)

Forecast

The report was made 5 hours and 8 minutes ago, at 05:20 UTC
Forecast valid from 23 at 06 UTC to 24 at 06 UTC
Wind 3 mph from variable directions
Visibility: 6 miles
Clear sky
From 23 at 1700 UTC
Wind 9 mph from the Southwest
Visibility: 6 miles
Scattered clouds at a height of 7000 ft
Scattered clouds at a height of 18000 ft

TAF: KSME 230520Z 2306/2406 VRB03KT P6SM SKC FM231700 23008KT P6SM SCT070 SCT180

Weather observations and forecasts of more than 4000 airports (METAR and TAF reports).

The available stations are represented by yellow and red dots on the map.

Hover mouse over dot to see the name of the station.

Then click to see weather observations and forecasts.

To change the map : click on the green buttons with a black cross to zoom in, on the green button with a dash to zoom out, or on the green arrows for adjacent maps.


METAR-TAF: